createdAt,value
2018-05-01T00:00:01.352Z,13.40
2018-05-01T00:02:29.701Z,13.30
2018-05-01T00:04:57.244Z,13.30
2018-05-01T00:07:24.788Z,13.30
2018-05-01T00:09:53.129Z,13.20
2018-05-01T00:12:20.672Z,13.20
2018-05-01T00:14:48.252Z,13.20
2018-05-01T00:17:15.801Z,13.20
2018-05-01T00:19:43.374Z,13.20
2018-05-01T00:22:10.916Z,13.20
2018-05-01T00:24:38.736Z,13.20
2018-05-01T00:27:06.276Z,13.00
2018-05-01T00:29:33.842Z,12.90
2018-05-01T00:32:01.388Z,13.00
2018-05-01T00:34:28.952Z,12.90
2018-05-01T00:36:56.505Z,12.90
2018-05-01T00:39:24.072Z,12.90
2018-05-01T00:41:52.388Z,12.80
2018-05-01T00:44:19.960Z,12.80
2018-05-01T00:46:47.500Z,12.80
2018-05-01T00:49:15.076Z,12.90
2018-05-01T00:51:42.654Z,12.80
2018-05-01T00:54:10.200Z,12.80
2018-05-01T00:56:37.745Z,12.70
2018-05-01T00:59:05.580Z,12.50
2018-05-01T01:01:33.125Z,12.60
2018-05-01T01:04:01.493Z,12.60
2018-05-01T01:06:29.031Z,12.60
2018-05-01T01:08:56.602Z,12.50
2018-05-01T01:11:24.227Z,12.50
2018-05-01T01:13:52.446Z,12.50
2018-05-01T01:16:20.769Z,12.40
2018-05-01T01:18:49.274Z,12.40
2018-05-01T01:21:16.816Z,12.50
2018-05-01T01:23:44.389Z,12.40
2018-05-01T01:26:11.934Z,12.40
2018-05-01T01:28:39.498Z,12.30
2018-05-01T01:31:07.036Z,12.30
2018-05-01T01:33:34.602Z,12.40
2018-05-01T01:36:01.662Z,12.30
2018-05-01T01:38:28.740Z,12.40
2018-05-01T01:40:56.024Z,12.30
2018-05-01T01:43:23.076Z,12.30
2018-05-01T01:45:50.916Z,12.20
2018-05-01T01:48:17.977Z,12.20
2018-05-01T01:50:45.066Z,12.20
2018-05-01T01:53:12.121Z,12.00
2018-05-01T01:55:39.205Z,12.00
2018-05-01T01:58:06.260Z,12.00
2018-05-01T02:00:34.108Z,12.00
2018-05-01T02:03:01.160Z,12.10
2018-05-01T02:05:28.261Z,12.00
2018-05-01T02:07:55.309Z,12.00
2018-05-01T02:10:22.384Z,11.90
2018-05-01T02:12:49.435Z,11.80
2018-05-01T02:15:16.514Z,11.70
2018-05-01T02:17:44.328Z,11.50
2018-05-01T02:20:11.400Z,11.50
2018-05-01T02:22:38.452Z,11.60
2018-05-01T02:25:05.529Z,11.50
2018-05-01T02:27:32.780Z,11.60
2018-05-01T02:29:59.860Z,11.60
2018-05-01T02:32:26.908Z,11.50
2018-05-01T02:34:53.985Z,11.60
2018-05-01T02:37:21.041Z,11.40
2018-05-01T02:39:48.116Z,11.40
2018-05-01T02:42:15.939Z,11.30
2018-05-01T02:44:43.015Z,11.30
2018-05-01T02:47:10.832Z,11.40
2018-05-01T02:49:37.909Z,11.40
2018-05-01T02:52:04.964Z,11.50
2018-05-01T02:54:32.041Z,11.40
2018-05-01T02:56:59.092Z,11.30
2018-05-01T02:59:26.168Z,11.30
2018-05-01T03:01:53.220Z,11.20
2018-05-01T03:04:20.297Z,11.20
2018-05-01T03:06:47.349Z,11.20
2018-05-01T03:09:14.409Z,11.10
2018-05-01T03:11:41.490Z,11.20
2018-05-01T03:14:08.545Z,11.10
2018-05-01T03:16:35.620Z,11.00
2018-05-01T03:19:02.684Z,11.10
2018-05-01T03:21:29.761Z,11.10
2018-05-01T03:23:56.819Z,11.00
2018-05-01T03:26:23.905Z,11.00
2018-05-01T03:28:50.998Z,11.00
2018-05-01T03:31:18.073Z,10.90
2018-05-01T03:33:45.128Z,10.80
2018-05-01T03:36:12.205Z,10.90
2018-05-01T03:38:39.261Z,10.90
2018-05-01T03:41:06.335Z,10.70
2018-05-01T03:43:33.388Z,10.70
2018-05-01T03:46:00.465Z,10.60
2018-05-01T03:48:27.520Z,10.70
2018-05-01T03:50:54.601Z,10.70
2018-05-01T03:53:22.419Z,10.50
2018-05-01T03:55:49.544Z,10.50
2018-05-01T03:58:17.337Z,10.40
2018-05-01T04:00:44.412Z,10.40
2018-05-01T04:03:11.464Z,10.30
2018-05-01T04:05:38.541Z,10.30
2018-05-01T04:08:05.714Z,10.30
2018-05-01T04:10:32.792Z,10.40
2018-05-01T04:12:59.882Z,10.40
2018-05-01T04:15:26.957Z,10.40
2018-05-01T04:17:54.009Z,10.40
2018-05-01T04:20:21.093Z,10.40
2018-05-01T04:22:48.152Z,10.40
2018-05-01T04:25:16.048Z,10.30
2018-05-01T04:27:43.060Z,10.30
2018-05-01T04:30:10.136Z,10.30
2018-05-01T04:32:37.184Z,10.30
2018-05-01T04:35:04.232Z,10.30
2018-05-01T04:37:31.308Z,10.20
2018-05-01T04:39:58.365Z,10.20
2018-05-01T04:42:25.439Z,10.20
2018-05-01T04:44:52.489Z,9.90
2018-05-01T04:47:20.326Z,9.90
2018-05-01T04:49:47.376Z,10.00
2018-05-01T04:52:14.453Z,10.00
2018-05-01T04:54:41.508Z,10.10
2018-05-01T04:57:09.352Z,10.10
2018-05-01T04:59:36.400Z,10.00
2018-05-01T05:02:03.480Z,10.00
2018-05-01T05:04:30.528Z,9.90
2018-05-01T05:06:57.601Z,9.80
2018-05-01T05:09:24.682Z,9.90
2018-05-01T05:11:51.753Z,10.00
2018-05-01T05:14:19.567Z,9.90
2018-05-01T05:16:46.639Z,9.90
2018-05-01T05:19:13.688Z,9.90
2018-05-01T05:21:40.760Z,9.90
2018-05-01T05:24:08.573Z,9.80
2018-05-01T05:26:35.652Z,9.80
2018-05-01T05:29:02.715Z,9.90
2018-05-01T05:31:30.552Z,9.90
2018-05-01T05:33:57.609Z,10.00
2018-05-01T05:36:24.754Z,9.90
2018-05-01T05:38:51.749Z,9.90
2018-05-01T05:41:18.826Z,9.90
2018-05-01T05:43:45.881Z,9.80
2018-05-01T05:46:12.948Z,9.80
2018-05-01T05:48:40.035Z,9.80
2018-05-01T05:51:07.112Z,9.80
2018-05-01T05:53:34.161Z,9.80
2018-05-01T05:56:01.237Z,9.80
2018-05-01T05:58:28.310Z,9.80
2018-05-01T06:00:56.153Z,9.90
2018-05-01T06:03:23.201Z,9.80
2018-05-01T06:05:50.280Z,9.80
2018-05-01T06:08:17.329Z,9.90
2018-05-01T06:10:44.393Z,9.80
2018-05-01T06:13:11.488Z,9.80
2018-05-01T06:15:38.539Z,9.80
2018-05-01T06:18:05.737Z,9.90
2018-05-01T06:20:34.432Z,9.90
2018-05-01T06:23:01.504Z,9.90
2018-05-01T06:25:28.557Z,10.00
2018-05-01T06:27:55.636Z,10.10
2018-05-01T06:30:23.456Z,10.20
2018-05-01T06:32:51.229Z,10.20
2018-05-01T06:35:18.284Z,10.20
2018-05-01T06:37:45.361Z,10.30
2018-05-01T06:40:12.416Z,10.30
2018-05-01T06:42:39.490Z,10.20
2018-05-01T06:45:06.574Z,10.20
2018-05-01T06:47:33.648Z,10.20
2018-05-01T06:50:00.696Z,10.30
2018-05-01T06:52:28.537Z,10.30
2018-05-01T06:54:55.605Z,10.20
2018-05-01T06:57:23.446Z,10.30
2018-05-01T06:59:50.498Z,10.30
2018-05-01T07:02:17.644Z,10.40
2018-05-01T07:04:44.652Z,10.60
2018-05-01T07:07:11.733Z,10.60
2018-05-01T07:09:38.785Z,10.70
2018-05-01T07:12:05.860Z,10.80
2018-05-01T07:14:32.911Z,10.90
2018-05-01T07:16:59.985Z,11.00
2018-05-01T07:19:27.041Z,11.10
2018-05-01T07:21:54.121Z,11.20
2018-05-01T07:24:21.168Z,11.20
2018-05-01T07:26:48.245Z,11.20
2018-05-01T07:29:15.296Z,11.30
2018-05-01T07:31:42.378Z,11.20
2018-05-01T07:34:09.428Z,11.30
2018-05-01T07:36:36.483Z,11.20
2018-05-01T07:39:03.565Z,11.30
2018-05-01T07:41:31.448Z,11.30
2018-05-01T07:43:58.488Z,11.30
2018-05-01T07:46:26.385Z,11.40
2018-05-01T07:48:53.409Z,11.40
2018-05-01T07:51:20.461Z,11.50
2018-05-01T07:53:47.540Z,11.50
2018-05-01T07:56:14.592Z,11.60
2018-05-01T07:58:41.665Z,11.60
2018-05-01T08:01:08.720Z,11.60
2018-05-01T08:03:36.565Z,11.70
2018-05-01T08:06:03.618Z,11.70
2018-05-01T08:08:30.701Z,11.80
2018-05-01T08:10:57.753Z,11.80
2018-05-01T08:13:24.829Z,11.90
2018-05-01T08:15:51.881Z,12.00
2018-05-01T08:18:18.956Z,12.00
2018-05-01T08:20:46.025Z,12.20
2018-05-01T08:23:13.867Z,12.40
2018-05-01T08:25:40.921Z,12.30
2018-05-01T08:28:07.997Z,12.40
2018-05-01T08:30:35.151Z,12.60
2018-05-01T08:33:02.232Z,12.80
2018-05-01T08:35:29.292Z,13.00
2018-05-01T08:37:56.377Z,13.30
2018-05-01T08:40:24.200Z,13.60
2018-05-01T08:42:51.319Z,13.60
2018-05-01T08:45:18.401Z,14.10
2018-05-01T08:47:45.488Z,14.50
2018-05-01T08:50:12.546Z,15.00
2018-05-01T08:52:39.617Z,15.40
2018-05-01T08:55:06.669Z,15.60
2018-05-01T08:57:33.755Z,15.70
2018-05-01T09:00:01.581Z,15.60
2018-05-01T09:02:28.633Z,15.60
2018-05-01T09:04:56.472Z,15.30
2018-05-01T09:07:23.540Z,15.30
2018-05-01T09:09:51.390Z,15.30
2018-05-01T09:12:18.445Z,15.30
2018-05-01T09:14:45.521Z,15.30
2018-05-01T09:17:12.576Z,15.30
2018-05-01T09:19:39.652Z,15.20
2018-05-01T09:22:06.704Z,14.90
2018-05-01T09:24:33.785Z,14.70
2018-05-01T09:27:00.854Z,14.70
2018-05-01T09:29:27.942Z,14.80
2018-05-01T09:31:54.996Z,14.60
2018-05-01T09:34:22.077Z,14.50
2018-05-01T09:36:49.132Z,14.50
2018-05-01T09:39:16.290Z,14.20
2018-05-01T09:41:43.284Z,14.10
2018-05-01T09:44:10.366Z,14.20
2018-05-01T09:46:37.454Z,14.30
2018-05-01T09:49:05.297Z,13.90
2018-05-01T09:51:32.413Z,13.90
2018-05-01T09:53:59.988Z,13.80
2018-05-01T09:56:27.542Z,13.90
2018-05-01T09:58:55.109Z,13.70
2018-05-01T10:01:22.649Z,13.80
2018-05-01T10:03:50.218Z,13.80
2018-05-01T10:06:17.766Z,13.80
2018-05-01T10:08:45.384Z,13.70
2018-05-01T10:11:13.696Z,13.50
2018-05-01T10:13:42.189Z,13.50
2018-05-01T10:16:09.728Z,13.70
2018-05-01T10:18:38.632Z,13.60
2018-05-01T10:21:06.177Z,13.60
2018-05-01T10:23:33.741Z,13.60
2018-05-01T10:26:01.558Z,13.70
2018-05-01T10:28:29.184Z,13.80
2018-05-01T10:30:56.751Z,13.70
2018-05-01T10:33:24.504Z,13.70
2018-05-01T10:35:52.092Z,13.90
2018-05-01T10:38:19.632Z,13.90
2018-05-01T10:40:47.209Z,14.00
2018-05-01T10:43:14.765Z,14.10
2018-05-01T10:45:42.365Z,14.20
2018-05-01T10:48:10.668Z,14.50
2018-05-01T10:50:38.235Z,14.50
2018-05-01T10:53:06.553Z,14.70
2018-05-01T10:55:34.708Z,14.70
2018-05-01T10:58:02.256Z,14.90
2018-05-01T11:00:29.849Z,14.80
2018-05-01T11:02:57.793Z,15.00
2018-05-01T11:05:25.465Z,14.90
2018-05-01T11:07:54.751Z,15.10
2018-05-01T11:10:22.497Z,15.00
2018-05-01T11:12:50.144Z,15.30
2018-05-01T11:15:17.720Z,15.50
2018-05-01T11:17:45.267Z,15.50
2018-05-01T11:20:12.832Z,15.50
2018-05-01T11:22:40.380Z,15.60
2018-05-01T11:25:07.945Z,15.40
2018-05-01T11:27:35.490Z,15.40
2018-05-01T11:30:03.065Z,15.70
2018-05-01T11:32:30.605Z,15.90
2018-05-01T11:34:58.186Z,16.00
2018-05-01T11:37:25.736Z,16.00
2018-05-01T11:39:53.303Z,15.80
2018-05-01T11:42:20.846Z,15.90
2018-05-01T11:44:48.414Z,15.90
2018-05-01T11:47:15.958Z,15.90
2018-05-01T11:49:43.529Z,16.00
2018-05-01T11:52:11.068Z,16.00
2018-05-01T11:54:38.634Z,16.00
2018-05-01T11:57:06.180Z,16.20
2018-05-01T11:59:33.766Z,16.40
2018-05-01T12:02:01.317Z,16.40
2018-05-01T12:04:28.913Z,16.20
2018-05-01T12:06:56.452Z,16.30
2018-05-01T12:09:24.001Z,16.60
2018-05-01T12:11:51.565Z,16.50
2018-05-01T12:14:19.116Z,16.60
2018-05-01T12:16:46.709Z,16.50
2018-05-01T12:19:14.251Z,16.60
2018-05-01T12:21:41.828Z,16.60
2018-05-01T12:24:09.395Z,16.60
2018-05-01T12:26:36.964Z,16.50
2018-05-01T12:29:04.504Z,16.50
2018-05-01T12:31:32.073Z,16.40
2018-05-01T12:33:59.622Z,16.30
2018-05-01T12:36:27.260Z,16.50
2018-05-01T12:38:54.744Z,16.60
2018-05-01T12:41:23.097Z,16.70
2018-05-01T12:43:50.637Z,16.70
2018-05-01T12:46:18.208Z,16.80
2018-05-01T12:48:46.522Z,16.80
2018-05-01T12:51:14.089Z,16.80
2018-05-01T12:53:41.639Z,16.70
2018-05-01T12:56:09.973Z,17.00
2018-05-01T12:58:37.672Z,17.00
2018-05-01T13:01:05.243Z,17.00
2018-05-01T13:03:33.572Z,17.00
2018-05-01T13:06:01.179Z,17.00
2018-05-01T13:08:31.236Z,16.90
2018-05-01T13:10:59.629Z,16.90
2018-05-01T13:13:27.172Z,17.00
2018-05-01T13:15:54.737Z,16.90
2018-05-01T13:18:22.289Z,16.90
2018-05-01T13:20:49.862Z,16.90
2018-05-01T13:23:17.410Z,16.80
2018-05-01T13:25:44.973Z,16.70
2018-05-01T13:28:12.520Z,16.60
2018-05-01T13:30:40.089Z,16.60
2018-05-01T13:33:07.642Z,16.50
2018-05-01T13:35:35.205Z,16.50
2018-05-01T13:38:02.745Z,16.40
2018-05-01T13:40:30.421Z,16.50
2018-05-01T13:42:57.956Z,16.40
2018-05-01T13:45:25.501Z,16.50
2018-05-01T13:47:53.069Z,16.50
2018-05-01T13:50:21.388Z,16.60
2018-05-01T13:52:48.956Z,16.50
2018-05-01T13:55:16.589Z,16.50
2018-05-01T13:57:44.096Z,16.40
2018-05-01T14:00:11.640Z,16.60
2018-05-01T14:02:39.213Z,16.60
2018-05-01T14:05:06.753Z,16.50
2018-05-01T14:07:34.325Z,16.50
2018-05-01T14:10:01.868Z,16.60
2018-05-01T14:12:29.440Z,16.60
2018-05-01T14:14:56.984Z,16.60
2018-05-01T14:17:24.613Z,16.60
2018-05-01T14:19:52.155Z,16.70
2018-05-01T14:22:19.725Z,16.60
2018-05-01T14:24:47.268Z,16.40
2018-05-01T14:27:14.845Z,16.60
2018-05-01T14:29:42.388Z,16.50
2018-05-01T14:32:10.761Z,16.60
2018-05-01T14:34:39.069Z,16.70
2018-05-01T14:37:06.640Z,16.70
2018-05-01T14:39:34.710Z,16.70
2018-05-01T14:42:02.365Z,16.70
2018-05-01T14:44:29.836Z,16.80
2018-05-01T14:46:57.404Z,16.80
2018-05-01T14:49:24.958Z,16.70
2018-05-01T14:51:52.532Z,16.70
2018-05-01T14:54:20.073Z,16.80
2018-05-01T14:56:48.384Z,16.70
2018-05-01T14:59:16.769Z,16.70
2018-05-01T15:01:44.366Z,16.70
2018-05-01T15:04:11.901Z,16.70
2018-05-01T15:06:39.562Z,16.70
2018-05-01T15:09:07.132Z,16.70
2018-05-01T15:11:34.682Z,16.70
2018-05-01T15:14:02.302Z,16.70
2018-05-01T15:16:29.844Z,16.70
2018-05-01T15:18:57.410Z,16.70
2018-05-01T15:21:24.980Z,16.80
2018-05-01T15:23:52.553Z,16.70
2018-05-01T15:26:20.100Z,16.70
2018-05-01T15:28:47.665Z,16.60
2018-05-01T15:31:15.219Z,16.60
2018-05-01T15:33:43.557Z,16.50
2018-05-01T15:36:11.097Z,16.50
2018-05-01T15:38:38.678Z,16.50
2018-05-01T15:41:06.229Z,16.50
2018-05-01T15:43:33.794Z,16.40
2018-05-01T15:46:01.443Z,16.40
2018-05-01T15:48:29.049Z,16.40
2018-05-01T15:50:56.591Z,16.40
2018-05-01T15:53:24.168Z,16.40
2018-05-01T15:55:51.712Z,16.40
2018-05-01T15:58:19.764Z,16.50
2018-05-01T16:00:48.110Z,16.50
2018-05-01T16:03:15.665Z,16.50
2018-05-01T16:05:43.204Z,16.40
2018-05-01T16:08:11.544Z,16.30
2018-05-01T16:10:39.622Z,16.30
2018-05-01T16:13:07.993Z,16.20
2018-05-01T16:15:35.541Z,16.20
2018-05-01T16:18:03.104Z,16.30
2018-05-01T16:20:31.411Z,16.30
2018-05-01T16:22:58.976Z,16.20
2018-05-01T16:25:27.291Z,16.20
2018-05-01T16:27:54.857Z,16.20
2018-05-01T16:30:22.436Z,16.20
2018-05-01T16:32:50.029Z,16.30
2018-05-01T16:35:17.600Z,16.20
2018-05-01T16:37:45.913Z,16.20
2018-05-01T16:40:13.484Z,16.20
2018-05-01T16:42:41.036Z,16.30
2018-05-01T16:45:08.611Z,16.30
2018-05-01T16:47:36.157Z,16.20
2018-05-01T16:50:03.729Z,16.30
2018-05-01T16:52:31.280Z,16.30
2018-05-01T16:54:58.983Z,16.20
2018-05-01T16:57:26.529Z,16.20
2018-05-01T16:59:54.092Z,16.10
2018-05-01T17:02:21.633Z,16.20
2018-05-01T17:04:49.200Z,16.20
2018-05-01T17:07:16.744Z,16.00
2018-05-01T17:09:44.352Z,16.00
2018-05-01T17:12:11.900Z,15.90
2018-05-01T17:14:40.261Z,15.90
2018-05-01T17:17:07.815Z,15.90
2018-05-01T17:19:35.382Z,15.80
2018-05-01T17:22:02.941Z,15.70
2018-05-01T17:24:30.514Z,15.70
2018-05-01T17:26:58.057Z,15.60
2018-05-01T17:29:25.634Z,15.50
2018-05-01T17:31:53.184Z,15.50
2018-05-01T17:34:20.752Z,15.40
2018-05-01T17:36:48.293Z,15.40
2018-05-01T17:39:15.865Z,15.20
2018-05-01T17:41:44.183Z,15.10
2018-05-01T17:44:11.753Z,15.10
2018-05-01T17:46:40.063Z,15.00
2018-05-01T17:49:07.641Z,15.00
2018-05-01T17:51:35.187Z,15.00
2018-05-01T17:54:03.516Z,14.90
2018-05-01T17:56:31.063Z,14.90
2018-05-01T17:58:58.628Z,14.90
2018-05-01T18:01:26.170Z,14.90
2018-05-01T18:03:53.900Z,14.90
2018-05-01T18:06:21.455Z,14.90
2018-05-01T18:08:49.793Z,14.90
2018-05-01T18:11:17.342Z,14.90
2018-05-01T18:13:44.912Z,14.90
2018-05-01T18:16:12.456Z,14.80
2018-05-01T18:18:40.020Z,14.70
2018-05-01T18:21:07.571Z,14.80
2018-05-01T18:23:35.148Z,14.80
2018-05-01T18:26:02.701Z,14.70
2018-05-01T18:28:30.280Z,14.50
2018-05-01T18:30:57.825Z,14.50
2018-05-01T18:33:25.369Z,14.40
2018-05-01T18:35:52.936Z,14.40
2018-05-01T18:38:20.472Z,14.20
2018-05-01T18:40:48.037Z,14.20
2018-05-01T18:43:15.580Z,14.20
2018-05-01T18:45:43.144Z,14.10
2018-05-01T18:48:10.688Z,14.10
2018-05-01T18:50:40.393Z,13.90
2018-05-01T18:53:05.816Z,13.70
2018-05-01T18:55:33.386Z,13.80
2018-05-01T18:58:00.935Z,13.50
2018-05-01T19:00:28.506Z,13.40
2018-05-01T19:02:56.062Z,13.20
2018-05-01T19:05:23.630Z,13.10
2018-05-01T19:07:51.174Z,13.00
2018-05-01T19:10:18.749Z,13.00
2018-05-01T19:12:46.297Z,13.00
2018-05-01T19:15:14.141Z,13.10
2018-05-01T19:17:41.680Z,13.10
2018-05-01T19:20:09.245Z,12.90
2018-05-01T19:22:36.791Z,12.90
2018-05-01T19:25:05.132Z,12.80
2018-05-01T19:27:32.677Z,12.80
2018-05-01T19:30:00.243Z,12.80
2018-05-01T19:32:28.557Z,12.70
2018-05-01T19:34:56.134Z,12.60
2018-05-01T19:37:23.677Z,12.60
2018-05-01T19:39:51.220Z,12.60
2018-05-01T19:42:18.788Z,12.70
2018-05-01T19:44:46.332Z,12.60
2018-05-01T19:47:13.905Z,12.60
2018-05-01T19:49:41.449Z,12.50
2018-05-01T19:52:09.056Z,12.30
2018-05-01T19:54:36.605Z,12.30
2018-05-01T19:57:04.940Z,12.00
2018-05-01T19:59:32.509Z,12.00
2018-05-01T20:02:00.115Z,11.70
2018-05-01T20:04:27.668Z,11.70
2018-05-01T20:06:55.995Z,11.20
2018-05-01T20:09:23.537Z,11.20
2018-05-01T20:11:51.108Z,11.10
2018-05-01T20:14:18.674Z,11.10
2018-05-01T20:16:46.250Z,11.00
2018-05-01T20:19:13.857Z,10.90
2018-05-01T20:21:41.429Z,10.70
2018-05-01T20:24:08.972Z,10.70
2018-05-01T20:26:36.532Z,10.50
2018-05-01T20:29:04.073Z,10.40
2018-05-01T20:31:32.410Z,10.30
2018-05-01T20:33:59.952Z,10.30
2018-05-01T20:36:27.524Z,10.20
2018-05-01T20:38:55.840Z,9.80
2018-05-01T20:41:23.404Z,9.80
2018-05-01T20:43:50.945Z,9.80
2018-05-01T20:46:19.276Z,9.70
2018-05-01T20:48:46.844Z,9.70
2018-05-01T20:51:14.396Z,9.60
2018-05-01T20:53:41.963Z,9.60
2018-05-01T20:56:09.514Z,9.40
2018-05-01T20:58:37.080Z,9.30
2018-05-01T21:01:04.632Z,9.10
2018-05-01T21:03:32.200Z,9.00
2018-05-01T21:05:59.741Z,9.00
2018-05-01T21:08:27.305Z,9.00
2018-05-01T21:10:54.887Z,9.00
2018-05-01T21:13:22.425Z,8.80
2018-05-01T21:15:49.969Z,8.80
2018-05-01T21:18:17.533Z,8.80
2018-05-01T21:20:45.082Z,8.70
2018-05-01T21:23:13.414Z,8.70
2018-05-01T21:25:40.975Z,8.70
2018-05-01T21:28:09.308Z,8.60
2018-05-01T21:30:37.620Z,8.70
2018-05-01T21:33:05.220Z,8.60
2018-05-01T21:35:32.761Z,8.60
2018-05-01T21:38:01.092Z,8.60
2018-05-01T21:40:28.636Z,8.60
2018-05-01T21:42:56.212Z,8.60
2018-05-01T21:45:25.266Z,8.40
2018-05-01T21:47:52.829Z,8.40
2018-05-01T21:50:20.364Z,8.40
2018-05-01T21:52:48.696Z,8.20
2018-05-01T21:55:16.232Z,8.20
2018-05-01T21:57:43.790Z,8.20
2018-05-01T22:00:11.348Z,8.10
2018-05-01T22:02:38.908Z,8.10
2018-05-01T22:05:06.446Z,8.10
2018-05-01T22:07:34.010Z,8.10
2018-05-01T22:10:01.638Z,8.00
2018-05-01T22:12:29.140Z,7.80
2018-05-01T22:14:56.680Z,7.90
2018-05-01T22:17:24.237Z,7.90
2018-05-01T22:19:51.776Z,7.90
2018-05-01T22:22:20.105Z,7.70
2018-05-01T22:24:47.650Z,7.70
2018-05-01T22:27:15.224Z,7.70
2018-05-01T22:29:42.767Z,7.60
2018-05-01T22:32:10.334Z,7.70
2018-05-01T22:34:37.873Z,7.60
2018-05-01T22:37:05.438Z,7.50
2018-05-01T22:39:32.976Z,7.50
2018-05-01T22:42:01.288Z,7.40
2018-05-01T22:44:28.848Z,7.40
2018-05-01T22:46:56.704Z,7.40
2018-05-01T22:49:24.274Z,7.30
2018-05-01T22:51:51.817Z,7.30
2018-05-01T22:54:19.380Z,7.20
2018-05-01T22:56:46.924Z,7.20
2018-05-01T22:59:15.257Z,7.00
2018-05-01T23:01:42.816Z,7.00
2018-05-01T23:04:10.376Z,7.00
2018-05-01T23:06:37.912Z,7.10
2018-05-01T23:09:06.240Z,7.10
2018-05-01T23:11:34.545Z,6.90
2018-05-01T23:14:02.105Z,6.90
2018-05-01T23:16:29.648Z,6.90
2018-05-01T23:18:57.212Z,7.00
2018-05-01T23:21:24.750Z,6.90
2018-05-01T23:23:53.072Z,6.90
2018-05-01T23:26:20.616Z,6.80
2018-05-01T23:28:48.176Z,6.80
2018-05-01T23:31:15.714Z,6.70
2018-05-01T23:33:43.277Z,6.70
2018-05-01T23:36:10.825Z,6.60
2018-05-01T23:38:38.394Z,6.60
2018-05-01T23:41:05.929Z,6.60
2018-05-01T23:43:34.272Z,6.60
2018-05-01T23:46:01.810Z,6.50
2018-05-01T23:48:29.350Z,6.60
2018-05-01T23:50:56.912Z,6.60
2018-05-01T23:53:24.449Z,6.60
2018-05-01T23:55:52.012Z,6.60
2018-05-01T23:58:19.551Z,6.50
